sensor_id;sensor_type;location;lat;lon;timestamp;P1;durP1;ratioP1;P2;durP2;ratioP2
85445;SDS011;75839;50.982;7.040;2024-03-17T00:01:45;6.35;;;2.95;;
85445;SDS011;75839;50.982;7.040;2024-03-17T00:04:11;5.50;;;3.20;;
85445;SDS011;75839;50.982;7.040;2024-03-17T00:06:36;6.53;;;3.28;;
85445;SDS011;75839;50.982;7.040;2024-03-17T00:09:02;5.43;;;2.85;;
85445;SDS011;75839;50.982;7.040;2024-03-17T00:11:31;4.75;;;2.40;;
85445;SDS011;75839;50.982;7.040;2024-03-17T00:13:57;4.72;;;2.08;;
85445;SDS011;75839;50.982;7.040;2024-03-17T00:16:23;3.90;;;2.20;;
85445;SDS011;75839;50.982;7.040;2024-03-17T00:18:48;10.00;;;2.53;;
85445;SDS011;75839;50.982;7.040;2024-03-17T00:21:13;4.22;;;2.05;;
85445;SDS011;75839;50.982;7.040;2024-03-17T00:23:39;4.28;;;2.30;;
85445;SDS011;75839;50.982;7.040;2024-03-17T00:26:04;6.20;;;2.20;;
85445;SDS011;75839;50.982;7.040;2024-03-17T00:28:29;6.43;;;2.45;;
85445;SDS011;75839;50.982;7.040;2024-03-17T00:30:55;5.13;;;2.72;;
85445;SDS011;75839;50.982;7.040;2024-03-17T00:33:20;6.53;;;3.13;;
85445;SDS011;75839;50.982;7.040;2024-03-17T00:35:45;4.72;;;2.60;;
85445;SDS011;75839;50.982;7.040;2024-03-17T00:38:12;3.63;;;2.17;;
85445;SDS011;75839;50.982;7.040;2024-03-17T00:40:38;3.88;;;2.20;;
85445;SDS011;75839;50.982;7.040;2024-03-17T00:43:03;3.78;;;2.55;;
85445;SDS011;75839;50.982;7.040;2024-03-17T00:45:29;3.00;;;2.10;;
85445;SDS011;75839;50.982;7.040;2024-03-17T00:47:54;5.20;;;2.38;;
85445;SDS011;75839;50.982;7.040;2024-03-17T00:50:19;5.57;;;2.22;;
85445;SDS011;75839;50.982;7.040;2024-03-17T00:52:45;3.15;;;2.13;;
85445;SDS011;75839;50.982;7.040;2024-03-17T00:55:10;4.25;;;2.85;;
85445;SDS011;75839;50.982;7.040;2024-03-17T00:57:36;4.05;;;2.25;;
85445;SDS011;75839;50.982;7.040;2024-03-17T01:00:02;4.72;;;2.10;;
85445;SDS011;75839;50.982;7.040;2024-03-17T01:02:31;5.30;;;2.53;;
85445;SDS011;75839;50.982;7.040;2024-03-17T01:04:56;7.60;;;3.28;;
85445;SDS011;75839;50.982;7.040;2024-03-17T01:07:22;4.15;;;2.20;;
85445;SDS011;75839;50.982;7.040;2024-03-17T01:09:47;7.72;;;3.17;;
85445;SDS011;75839;50.982;7.040;2024-03-17T01:12:13;7.53;;;2.88;;
85445;SDS011;75839;50.982;7.040;2024-03-17T01:14:39;5.07;;;2.08;;
85445;SDS011;75839;50.982;7.040;2024-03-17T01:17:04;9.75;;;3.35;;
85445;SDS011;75839;50.982;7.040;2024-03-17T01:19:30;3.65;;;2.33;;
85445;SDS011;75839;50.982;7.040;2024-03-17T01:21:55;4.40;;;2.35;;
85445;SDS011;75839;50.982;7.040;2024-03-17T01:24:21;10.82;;;2.35;;
85445;SDS011;75839;50.982;7.040;2024-03-17T01:26:46;5.45;;;2.40;;
85445;SDS011;75839;50.982;7.040;2024-03-17T01:29:12;5.85;;;2.97;;
85445;SDS011;75839;50.982;7.040;2024-03-17T01:31:38;4.68;;;2.55;;
85445;SDS011;75839;50.982;7.040;2024-03-17T01:34:04;3.88;;;2.45;;
85445;SDS011;75839;50.982;7.040;2024-03-17T01:36:29;4.53;;;1.98;;
85445;SDS011;75839;50.982;7.040;2024-03-17T01:38:55;6.93;;;2.53;;
85445;SDS011;75839;50.982;7.040;2024-03-17T01:41:20;4.65;;;2.28;;
85445;SDS011;75839;50.982;7.040;2024-03-17T01:43:45;5.35;;;2.40;;
85445;SDS011;75839;50.982;7.040;2024-03-17T01:46:12;3.63;;;2.53;;
85445;SDS011;75839;50.982;7.040;2024-03-17T01:48:39;4.00;;;2.33;;
85445;SDS011;75839;50.982;7.040;2024-03-17T01:51:05;4.68;;;2.75;;
85445;SDS011;75839;50.982;7.040;2024-03-17T01:53:30;5.10;;;2.92;;
85445;SDS011;75839;50.982;7.040;2024-03-17T01:55:56;3.10;;;1.95;;
85445;SDS011;75839;50.982;7.040;2024-03-17T01:58:24;3.30;;;1.85;;
85445;SDS011;75839;50.982;7.040;2024-03-17T02:00:50;4.20;;;2.45;;
85445;SDS011;75839;50.982;7.040;2024-03-17T02:03:16;6.18;;;2.50;;
85445;SDS011;75839;50.982;7.040;2024-03-17T02:05:42;4.13;;;2.83;;
85445;SDS011;75839;50.982;7.040;2024-03-17T02:08:09;6.45;;;2.42;;
85445;SDS011;75839;50.982;7.040;2024-03-17T02:10:35;7.07;;;2.45;;
85445;SDS011;75839;50.982;7.040;2024-03-17T02:13:01;4.75;;;2.80;;
85445;SDS011;75839;50.982;7.040;2024-03-17T02:15:28;4.05;;;2.10;;
85445;SDS011;75839;50.982;7.040;2024-03-17T02:17:53;3.40;;;1.83;;
85445;SDS011;75839;50.982;7.040;2024-03-17T02:20:19;6.22;;;2.55;;
85445;SDS011;75839;50.982;7.040;2024-03-17T02:22:44;3.45;;;2.28;;
85445;SDS011;75839;50.982;7.040;2024-03-17T02:25:10;4.38;;;2.47;;
85445;SDS011;75839;50.982;7.040;2024-03-17T02:27:35;6.78;;;3.33;;
85445;SDS011;75839;50.982;7.040;2024-03-17T02:30:02;4.38;;;2.17;;
85445;SDS011;75839;50.982;7.040;2024-03-17T02:32:27;3.92;;;2.33;;
85445;SDS011;75839;50.982;7.040;2024-03-17T02:34:53;4.40;;;2.45;;
85445;SDS011;75839;50.982;7.040;2024-03-17T02:37:19;5.25;;;2.50;;
85445;SDS011;75839;50.982;7.040;2024-03-17T02:39:45;7.00;;;2.40;;
85445;SDS011;75839;50.982;7.040;2024-03-17T02:42:10;4.47;;;2.55;;
85445;SDS011;75839;50.982;7.040;2024-03-17T02:44:36;4.43;;;2.08;;
85445;SDS011;75839;50.982;7.040;2024-03-17T02:47:03;4.47;;;2.53;;
85445;SDS011;75839;50.982;7.040;2024-03-17T02:49:30;3.72;;;2.25;;
85445;SDS011;75839;50.982;7.040;2024-03-17T02:52:01;7.72;;;2.40;;
85445;SDS011;75839;50.982;7.040;2024-03-17T02:54:27;3.78;;;2.25;;
85445;SDS011;75839;50.982;7.040;2024-03-17T02:56:52;6.45;;;2.92;;
85445;SDS011;75839;50.982;7.040;2024-03-17T02:59:18;4.03;;;2.85;;
85445;SDS011;75839;50.982;7.040;2024-03-17T03:01:43;3.75;;;2.03;;
85445;SDS011;75839;50.982;7.040;2024-03-17T03:04:10;3.67;;;1.92;;
85445;SDS011;75839;50.982;7.040;2024-03-17T03:06:35;4.82;;;2.45;;
85445;SDS011;75839;50.982;7.040;2024-03-17T03:09:01;4.43;;;2.35;;
85445;SDS011;75839;50.982;7.040;2024-03-17T03:11:26;3.58;;;2.20;;
85445;SDS011;75839;50.982;7.040;2024-03-17T03:13:53;6.53;;;3.10;;
85445;SDS011;75839;50.982;7.040;2024-03-17T03:16:19;3.85;;;2.42;;
85445;SDS011;75839;50.982;7.040;2024-03-17T03:18:44;6.90;;;2.38;;
85445;SDS011;75839;50.982;7.040;2024-03-17T03:21:10;4.38;;;2.25;;
85445;SDS011;75839;50.982;7.040;2024-03-17T03:23:37;4.30;;;2.72;;
85445;SDS011;75839;50.982;7.040;2024-03-17T03:26:03;3.88;;;2.40;;
85445;SDS011;75839;50.982;7.040;2024-03-17T03:28:29;7.07;;;3.05;;
85445;SDS011;75839;50.982;7.040;2024-03-17T03:30:56;4.15;;;2.22;;
85445;SDS011;75839;50.982;7.040;2024-03-17T03:33:21;6.85;;;3.17;;
85445;SDS011;75839;50.982;7.040;2024-03-17T03:35:47;4.18;;;2.50;;
85445;SDS011;75839;50.982;7.040;2024-03-17T03:38:13;4.05;;;2.08;;
85445;SDS011;75839;50.982;7.040;2024-03-17T03:40:39;4.63;;;2.22;;
85445;SDS011;75839;50.982;7.040;2024-03-17T03:43:05;8.45;;;3.22;;
85445;SDS011;75839;50.982;7.040;2024-03-17T03:45:30;8.95;;;2.60;;
85445;SDS011;75839;50.982;7.040;2024-03-17T03:47:56;4.97;;;2.10;;
85445;SDS011;75839;50.982;7.040;2024-03-17T03:50:21;3.78;;;2.42;;
85445;SDS011;75839;50.982;7.040;2024-03-17T03:52:47;3.92;;;2.72;;
85445;SDS011;75839;50.982;7.040;2024-03-17T03:55:13;3.72;;;2.97;;
85445;SDS011;75839;50.982;7.040;2024-03-17T03:57:43;3.88;;;2.22;;
85445;SDS011;75839;50.982;7.040;2024-03-17T04:00:16;4.05;;;2.70;;
85445;SDS011;75839;50.982;7.040;2024-03-17T04:02:46;4.03;;;2.28;;
85445;SDS011;75839;50.982;7.040;2024-03-17T04:05:15;5.93;;;2.83;;
85445;SDS011;75839;50.982;7.040;2024-03-17T04:07:40;4.07;;;2.42;;
85445;SDS011;75839;50.982;7.040;2024-03-17T04:10:08;5.60;;;3.10;;
85445;SDS011;75839;50.982;7.040;2024-03-17T04:12:34;8.25;;;2.63;;
85445;SDS011;75839;50.982;7.040;2024-03-17T04:15:00;4.25;;;2.53;;
85445;SDS011;75839;50.982;7.040;2024-03-17T04:17:25;6.80;;;3.13;;
85445;SDS011;75839;50.982;7.040;2024-03-17T04:19:52;3.95;;;2.65;;
85445;SDS011;75839;50.982;7.040;2024-03-17T04:22:18;3.28;;;2.47;;
85445;SDS011;75839;50.982;7.040;2024-03-17T04:24:44;4.90;;;2.03;;
85445;SDS011;75839;50.982;7.040;2024-03-17T04:27:18;2.92;;;1.65;;
85445;SDS011;75839;50.982;7.040;2024-03-17T04:29:45;3.70;;;2.40;;
85445;SDS011;75839;50.982;7.040;2024-03-17T04:32:12;4.38;;;2.53;;
85445;SDS011;75839;50.982;7.040;2024-03-17T04:34:38;4.72;;;2.72;;
85445;SDS011;75839;50.982;7.040;2024-03-17T04:37:03;6.60;;;2.75;;
85445;SDS011;75839;50.982;7.040;2024-03-17T04:39:29;4.93;;;3.15;;
85445;SDS011;75839;50.982;7.040;2024-03-17T04:41:54;5.05;;;2.22;;
85445;SDS011;75839;50.982;7.040;2024-03-17T04:44:19;4.07;;;2.65;;
85445;SDS011;75839;50.982;7.040;2024-03-17T04:46:45;4.53;;;2.78;;
85445;SDS011;75839;50.982;7.040;2024-03-17T04:49:11;5.60;;;2.90;;
85445;SDS011;75839;50.982;7.040;2024-03-17T04:51:36;5.88;;;2.75;;
85445;SDS011;75839;50.982;7.040;2024-03-17T04:54:02;4.28;;;2.30;;
85445;SDS011;75839;50.982;7.040;2024-03-17T04:56:33;8.00;;;2.50;;
85445;SDS011;75839;50.982;7.040;2024-03-17T04:58:59;4.85;;;2.67;;
85445;SDS011;75839;50.982;7.040;2024-03-17T05:01:24;4.63;;;3.10;;
85445;SDS011;75839;50.982;7.040;2024-03-17T05:03:53;3.65;;;2.35;;
85445;SDS011;75839;50.982;7.040;2024-03-17T05:06:18;5.95;;;2.55;;
85445;SDS011;75839;50.982;7.040;2024-03-17T05:08:44;6.10;;;2.47;;
85445;SDS011;75839;50.982;7.040;2024-03-17T05:11:09;4.88;;;2.47;;
85445;SDS011;75839;50.982;7.040;2024-03-17T05:13:35;5.43;;;2.90;;
85445;SDS011;75839;50.982;7.040;2024-03-17T05:16:01;8.60;;;3.45;;
85445;SDS011;75839;50.982;7.040;2024-03-17T05:18:28;5.70;;;2.58;;
85445;SDS011;75839;50.982;7.040;2024-03-17T05:20:58;2.83;;;1.92;;
85445;SDS011;75839;50.982;7.040;2024-03-17T05:23:27;5.63;;;3.38;;
85445;SDS011;75839;50.982;7.040;2024-03-17T05:25:53;5.28;;;2.67;;
85445;SDS011;75839;50.982;7.040;2024-03-17T05:28:19;5.18;;;2.83;;
85445;SDS011;75839;50.982;7.040;2024-03-17T05:30:45;7.28;;;2.53;;
85445;SDS011;75839;50.982;7.040;2024-03-17T05:33:10;4.35;;;2.92;;
85445;SDS011;75839;50.982;7.040;2024-03-17T05:35:37;6.40;;;3.15;;
85445;SDS011;75839;50.982;7.040;2024-03-17T05:38:03;5.40;;;2.83;;
85445;SDS011;75839;50.982;7.040;2024-03-17T05:40:28;5.35;;;3.42;;
85445;SDS011;75839;50.982;7.040;2024-03-17T05:42:55;5.13;;;2.72;;
85445;SDS011;75839;50.982;7.040;2024-03-17T05:45:21;6.20;;;2.15;;
85445;SDS011;75839;50.982;7.040;2024-03-17T05:47:46;8.00;;;3.78;;
85445;SDS011;75839;50.982;7.040;2024-03-17T05:50:11;4.72;;;2.97;;
85445;SDS011;75839;50.982;7.040;2024-03-17T05:52:37;3.83;;;2.85;;
85445;SDS011;75839;50.982;7.040;2024-03-17T05:55:03;2.88;;;2.08;;
85445;SDS011;75839;50.982;7.040;2024-03-17T05:57:28;5.75;;;2.92;;
85445;SDS011;75839;50.982;7.040;2024-03-17T05:59:54;5.85;;;3.08;;
85445;SDS011;75839;50.982;7.040;2024-03-17T06:02:20;4.57;;;2.88;;
85445;SDS011;75839;50.982;7.040;2024-03-17T06:04:46;5.72;;;3.45;;
85445;SDS011;75839;50.982;7.040;2024-03-17T06:07:11;6.32;;;3.40;;
85445;SDS011;75839;50.982;7.040;2024-03-17T06:09:37;8.48;;;2.80;;
85445;SDS011;75839;50.982;7.040;2024-03-17T06:12:02;6.95;;;2.92;;
85445;SDS011;75839;50.982;7.040;2024-03-17T06:14:27;8.63;;;2.72;;
85445;SDS011;75839;50.982;7.040;2024-03-17T06:16:53;4.88;;;2.50;;
85445;SDS011;75839;50.982;7.040;2024-03-17T06:19:18;5.40;;;2.53;;
85445;SDS011;75839;50.982;7.040;2024-03-17T06:21:45;6.90;;;2.65;;
85445;SDS011;75839;50.982;7.040;2024-03-17T06:24:10;6.57;;;3.50;;
85445;SDS011;75839;50.982;7.040;2024-03-17T06:26:36;5.75;;;3.10;;
85445;SDS011;75839;50.982;7.040;2024-03-17T06:29:01;5.20;;;2.92;;
85445;SDS011;75839;50.982;7.040;2024-03-17T06:31:27;5.00;;;3.45;;
85445;SDS011;75839;50.982;7.040;2024-03-17T06:33:52;4.93;;;2.78;;
85445;SDS011;75839;50.982;7.040;2024-03-17T06:36:18;4.30;;;2.33;;
85445;SDS011;75839;50.982;7.040;2024-03-17T06:38:46;6.60;;;3.70;;
85445;SDS011;75839;50.982;7.040;2024-03-17T06:41:11;8.27;;;3.10;;
85445;SDS011;75839;50.982;7.040;2024-03-17T06:43:39;3.38;;;2.38;;
85445;SDS011;75839;50.982;7.040;2024-03-17T06:46:06;5.68;;;3.33;;
85445;SDS011;75839;50.982;7.040;2024-03-17T06:48:32;5.70;;;3.00;;
85445;SDS011;75839;50.982;7.040;2024-03-17T06:50:58;6.70;;;3.10;;
85445;SDS011;75839;50.982;7.040;2024-03-17T06:53:24;5.75;;;3.55;;
85445;SDS011;75839;50.982;7.040;2024-03-17T06:55:54;7.65;;;3.13;;
85445;SDS011;75839;50.982;7.040;2024-03-17T06:58:24;8.02;;;2.83;;
85445;SDS011;75839;50.982;7.040;2024-03-17T07:00:58;6.28;;;2.50;;
85445;SDS011;75839;50.982;7.040;2024-03-17T07:03:25;3.78;;;2.20;;
85445;SDS011;75839;50.982;7.040;2024-03-17T07:05:51;3.88;;;2.40;;
85445;SDS011;75839;50.982;7.040;2024-03-17T07:08:18;3.75;;;2.40;;
85445;SDS011;75839;50.982;7.040;2024-03-17T07:10:54;3.63;;;2.33;;
85445;SDS011;75839;50.982;7.040;2024-03-17T07:13:27;6.93;;;2.80;;
85445;SDS011;75839;50.982;7.040;2024-03-17T07:15:53;8.85;;;3.17;;
85445;SDS011;75839;50.982;7.040;2024-03-17T07:18:19;5.10;;;2.97;;
85445;SDS011;75839;50.982;7.040;2024-03-17T07:20:45;6.00;;;3.58;;
85445;SDS011;75839;50.982;7.040;2024-03-17T07:23:14;5.18;;;2.70;;
85445;SDS011;75839;50.982;7.040;2024-03-17T07:25:40;8.48;;;2.97;;
85445;SDS011;75839;50.982;7.040;2024-03-17T07:28:06;6.05;;;2.50;;
85445;SDS011;75839;50.982;7.040;2024-03-17T07:30:31;6.13;;;2.95;;
85445;SDS011;75839;50.982;7.040;2024-03-17T07:32:57;2.60;;;1.75;;
85445;SDS011;75839;50.982;7.040;2024-03-17T07:35:23;3.05;;;2.05;;
85445;SDS011;75839;50.982;7.040;2024-03-17T07:37:48;2.78;;;1.67;;
85445;SDS011;75839;50.982;7.040;2024-03-17T07:40:13;2.40;;;1.48;;
85445;SDS011;75839;50.982;7.040;2024-03-17T07:42:40;2.28;;;1.25;;
85445;SDS011;75839;50.982;7.040;2024-03-17T07:45:06;1.48;;;0.75;;
85445;SDS011;75839;50.982;7.040;2024-03-17T07:47:32;2.17;;;1.35;;
85445;SDS011;75839;50.982;7.040;2024-03-17T07:50:04;4.57;;;1.58;;
85445;SDS011;75839;50.982;7.040;2024-03-17T07:52:30;5.40;;;2.03;;
85445;SDS011;75839;50.982;7.040;2024-03-17T07:54:56;2.13;;;1.08;;
85445;SDS011;75839;50.982;7.040;2024-03-17T07:57:22;2.20;;;1.20;;
85445;SDS011;75839;50.982;7.040;2024-03-17T07:59:51;4.53;;;1.20;;
85445;SDS011;75839;50.982;7.040;2024-03-17T08:02:16;1.35;;;1.20;;
85445;SDS011;75839;50.982;7.040;2024-03-17T08:04:42;3.17;;;2.08;;
85445;SDS011;75839;50.982;7.040;2024-03-17T08:07:09;2.70;;;1.58;;
85445;SDS011;75839;50.982;7.040;2024-03-17T08:09:35;2.28;;;1.55;;
85445;SDS011;75839;50.982;7.040;2024-03-17T08:12:00;1.75;;;1.33;;
85445;SDS011;75839;50.982;7.040;2024-03-17T08:14:27;2.60;;;1.60;;
85445;SDS011;75839;50.982;7.040;2024-03-17T08:16:52;0.77;;;0.50;;
85445;SDS011;75839;50.982;7.040;2024-03-17T08:19:17;2.72;;;1.85;;
85445;SDS011;75839;50.982;7.040;2024-03-17T08:21:43;1.23;;;0.93;;
85445;SDS011;75839;50.982;7.040;2024-03-17T08:24:08;2.35;;;1.35;;
85445;SDS011;75839;50.982;7.040;2024-03-17T08:26:34;2.25;;;1.23;;
85445;SDS011;75839;50.982;7.040;2024-03-17T08:28:59;4.45;;;1.40;;
85445;SDS011;75839;50.982;7.040;2024-03-17T08:31:24;2.72;;;1.30;;
85445;SDS011;75839;50.982;7.040;2024-03-17T08:33:50;2.15;;;1.27;;
85445;SDS011;75839;50.982;7.040;2024-03-17T08:36:16;1.42;;;1.33;;
85445;SDS011;75839;50.982;7.040;2024-03-17T08:38:44;2.38;;;1.33;;
85445;SDS011;75839;50.982;7.040;2024-03-17T08:41:09;1.80;;;1.15;;
85445;SDS011;75839;50.982;7.040;2024-03-17T08:43:36;2.45;;;1.10;;
85445;SDS011;75839;50.982;7.040;2024-03-17T08:46:06;1.05;;;0.80;;
85445;SDS011;75839;50.982;7.040;2024-03-17T08:48:35;2.05;;;1.25;;
85445;SDS011;75839;50.982;7.040;2024-03-17T08:51:01;5.00;;;1.08;;
85445;SDS011;75839;50.982;7.040;2024-03-17T08:53:28;1.35;;;0.80;;
85445;SDS011;75839;50.982;7.040;2024-03-17T08:55:54;2.15;;;1.10;;
85445;SDS011;75839;50.982;7.040;2024-03-17T08:58:20;0.50;;;0.50;;
85445;SDS011;75839;50.982;7.040;2024-03-17T09:00:45;1.88;;;1.15;;
85445;SDS011;75839;50.982;7.040;2024-03-17T09:03:11;5.63;;;1.08;;
85445;SDS011;75839;50.982;7.040;2024-03-17T09:05:41;2.22;;;0.80;;
85445;SDS011;75839;50.982;7.040;2024-03-17T09:08:07;1.20;;;1.10;;
85445;SDS011;75839;50.982;7.040;2024-03-17T09:10:42;0.73;;;0.47;;
85445;SDS011;75839;50.982;7.040;2024-03-17T09:13:15;1.13;;;1.00;;
85445;SDS011;75839;50.982;7.040;2024-03-17T09:15:51;1.00;;;0.70;;
85445;SDS011;75839;50.982;7.040;2024-03-17T09:18:20;0.98;;;0.65;;
85445;SDS011;75839;50.982;7.040;2024-03-17T09:20:46;2.00;;;1.30;;
85445;SDS011;75839;50.982;7.040;2024-03-17T09:23:11;1.55;;;1.00;;
85445;SDS011;75839;50.982;7.040;2024-03-17T09:25:37;2.17;;;1.10;;
85445;SDS011;75839;50.982;7.040;2024-03-17T09:28:02;1.77;;;0.90;;
85445;SDS011;75839;50.982;7.040;2024-03-17T09:30:28;1.00;;;0.80;;
85445;SDS011;75839;50.982;7.040;2024-03-17T09:32:54;1.13;;;0.85;;
85445;SDS011;75839;50.982;7.040;2024-03-17T09:35:19;1.58;;;0.90;;
85445;SDS011;75839;50.982;7.040;2024-03-17T09:37:44;1.58;;;1.08;;
85445;SDS011;75839;50.982;7.040;2024-03-17T09:40:13;0.80;;;0.75;;
85445;SDS011;75839;50.982;7.040;2024-03-17T09:42:40;1.35;;;1.05;;
85445;SDS011;75839;50.982;7.040;2024-03-17T09:45:06;1.17;;;0.90;;
85445;SDS011;75839;50.982;7.040;2024-03-17T09:47:32;1.90;;;0.93;;
85445;SDS011;75839;50.982;7.040;2024-03-17T09:49:57;1.58;;;0.98;;
85445;SDS011;75839;50.982;7.040;2024-03-17T09:52:23;1.48;;;0.82;;
85445;SDS011;75839;50.982;7.040;2024-03-17T09:55:00;1.38;;;0.82;;
85445;SDS011;75839;50.982;7.040;2024-03-17T09:57:27;1.80;;;0.90;;
85445;SDS011;75839;50.982;7.040;2024-03-17T09:59:54;1.58;;;1.02;;
85445;SDS011;75839;50.982;7.040;2024-03-17T10:02:20;1.20;;;0.70;;
85445;SDS011;75839;50.982;7.040;2024-03-17T10:04:46;2.90;;;1.02;;
85445;SDS011;75839;50.982;7.040;2024-03-17T10:07:12;0.90;;;0.80;;
85445;SDS011;75839;50.982;7.040;2024-03-17T10:09:37;0.98;;;0.60;;
85445;SDS011;75839;50.982;7.040;2024-03-17T10:12:04;0.50;;;0.50;;
85445;SDS011;75839;50.982;7.040;2024-03-17T10:14:30;1.35;;;1.00;;
85445;SDS011;75839;50.982;7.040;2024-03-17T10:16:56;1.35;;;0.95;;
85445;SDS011;75839;50.982;7.040;2024-03-17T10:19:25;1.15;;;0.70;;
85445;SDS011;75839;50.982;7.040;2024-03-17T10:21:57;0.75;;;0.50;;
85445;SDS011;75839;50.982;7.040;2024-03-17T10:24:24;2.10;;;1.20;;
85445;SDS011;75839;50.982;7.040;2024-03-17T10:26:54;2.17;;;0.80;;
85445;SDS011;75839;50.982;7.040;2024-03-17T10:31:55;2.72;;;0.80;;
85445;SDS011;75839;50.982;7.040;2024-03-17T10:34:22;0.80;;;0.60;;
85445;SDS011;75839;50.982;7.040;2024-03-17T10:36:52;1.38;;;0.73;;
85445;SDS011;75839;50.982;7.040;2024-03-17T10:39:28;1.08;;;0.80;;
85445;SDS011;75839;50.982;7.040;2024-03-17T10:41:58;1.80;;;1.20;;
85445;SDS011;75839;50.982;7.040;2024-03-17T10:44:25;2.13;;;1.02;;
85445;SDS011;75839;50.982;7.040;2024-03-17T10:46:54;1.83;;;1.25;;
85445;SDS011;75839;50.982;7.040;2024-03-17T10:51:49;1.85;;;0.77;;
85445;SDS011;75839;50.982;7.040;2024-03-17T10:54:20;1.80;;;1.10;;
85445;SDS011;75839;50.982;7.040;2024-03-17T10:56:50;1.88;;;1.13;;
85445;SDS011;75839;50.982;7.040;2024-03-17T10:59:16;1.13;;;0.93;;
85445;SDS011;75839;50.982;7.040;2024-03-17T11:01:44;2.38;;;2.03;;
85445;SDS011;75839;50.982;7.040;2024-03-17T11:04:13;1.17;;;0.73;;
85445;SDS011;75839;50.982;7.040;2024-03-17T11:06:39;2.45;;;1.17;;
85445;SDS011;75839;50.982;7.040;2024-03-17T11:09:06;2.35;;;1.48;;
85445;SDS011;75839;50.982;7.040;2024-03-17T11:11:36;4.55;;;1.20;;
85445;SDS011;75839;50.982;7.040;2024-03-17T11:14:23;2.63;;;1.10;;
85445;SDS011;75839;50.982;7.040;2024-03-17T11:16:48;1.23;;;0.82;;
85445;SDS011;75839;50.982;7.040;2024-03-17T11:19:14;1.58;;;1.20;;
85445;SDS011;75839;50.982;7.040;2024-03-17T11:21:41;2.05;;;1.35;;
85445;SDS011;75839;50.982;7.040;2024-03-17T11:24:06;2.72;;;1.73;;
85445;SDS011;75839;50.982;7.040;2024-03-17T11:26:44;2.00;;;1.55;;
85445;SDS011;75839;50.982;7.040;2024-03-17T11:29:23;1.10;;;0.80;;
85445;SDS011;75839;50.982;7.040;2024-03-17T11:31:51;1.65;;;1.13;;
85445;SDS011;75839;50.982;7.040;2024-03-17T11:34:36;1.38;;;0.82;;
85445;SDS011;75839;50.982;7.040;2024-03-17T11:37:04;1.35;;;1.00;;
85445;SDS011;75839;50.982;7.040;2024-03-17T11:39:45;2.60;;;1.00;;
85445;SDS011;75839;50.982;7.040;2024-03-17T11:42:12;1.63;;;1.13;;
85445;SDS011;75839;50.982;7.040;2024-03-17T11:44:41;3.45;;;1.20;;
85445;SDS011;75839;50.982;7.040;2024-03-17T11:47:08;2.03;;;1.05;;
85445;SDS011;75839;50.982;7.040;2024-03-17T11:49:34;2.72;;;1.45;;
85445;SDS011;75839;50.982;7.040;2024-03-17T11:52:09;1.80;;;0.95;;
85445;SDS011;75839;50.982;7.040;2024-03-17T11:54:38;1.83;;;0.93;;
85445;SDS011;75839;50.982;7.040;2024-03-17T11:57:05;2.70;;;0.98;;
85445;SDS011;75839;50.982;7.040;2024-03-17T11:59:47;1.85;;;1.17;;
85445;SDS011;75839;50.982;7.040;2024-03-17T12:02:20;1.65;;;1.05;;
85445;SDS011;75839;50.982;7.040;2024-03-17T12:04:47;3.42;;;1.42;;
85445;SDS011;75839;50.982;7.040;2024-03-17T12:07:14;1.60;;;1.05;;
85445;SDS011;75839;50.982;7.040;2024-03-17T12:09:40;1.60;;;1.10;;
85445;SDS011;75839;50.982;7.040;2024-03-17T12:12:10;2.40;;;1.20;;
85445;SDS011;75839;50.982;7.040;2024-03-17T12:14:41;2.28;;;1.30;;
85445;SDS011;75839;50.982;7.040;2024-03-17T12:17:07;1.52;;;0.88;;
85445;SDS011;75839;50.982;7.040;2024-03-17T12:19:34;2.58;;;1.80;;
85445;SDS011;75839;50.982;7.040;2024-03-17T12:22:00;2.17;;;1.30;;
85445;SDS011;75839;50.982;7.040;2024-03-17T12:24:27;1.77;;;1.15;;
85445;SDS011;75839;50.982;7.040;2024-03-17T12:34:32;1.25;;;0.73;;
85445;SDS011;75839;50.982;7.040;2024-03-17T12:36:59;2.28;;;1.05;;
85445;SDS011;75839;50.982;7.040;2024-03-17T12:39:26;2.47;;;1.58;;
85445;SDS011;75839;50.982;7.040;2024-03-17T12:42:04;2.25;;;1.10;;
85445;SDS011;75839;50.982;7.040;2024-03-17T12:44:38;1.52;;;0.95;;
85445;SDS011;75839;50.982;7.040;2024-03-17T12:47:14;2.15;;;1.20;;
85445;SDS011;75839;50.982;7.040;2024-03-17T12:49:47;1.67;;;1.05;;
85445;SDS011;75839;50.982;7.040;2024-03-17T12:52:18;1.35;;;1.02;;
85445;SDS011;75839;50.982;7.040;2024-03-17T12:55:03;1.30;;;0.70;;
85445;SDS011;75839;50.982;7.040;2024-03-17T12:58:10;3.28;;;0.98;;
85445;SDS011;75839;50.982;7.040;2024-03-17T13:00:59;1.13;;;1.00;;
85445;SDS011;75839;50.982;7.040;2024-03-17T13:03:30;2.05;;;1.42;;
85445;SDS011;75839;50.982;7.040;2024-03-17T13:05:58;1.98;;;0.98;;
85445;SDS011;75839;50.982;7.040;2024-03-17T13:08:24;1.90;;;1.05;;
85445;SDS011;75839;50.982;7.040;2024-03-17T13:10:49;2.13;;;0.93;;
85445;SDS011;75839;50.982;7.040;2024-03-17T13:13:15;1.40;;;1.00;;
85445;SDS011;75839;50.982;7.040;2024-03-17T13:15:41;1.85;;;1.00;;
85445;SDS011;75839;50.982;7.040;2024-03-17T13:18:07;1.70;;;1.10;;
85445;SDS011;75839;50.982;7.040;2024-03-17T13:20:32;1.40;;;1.20;;
85445;SDS011;75839;50.982;7.040;2024-03-17T13:22:58;1.77;;;1.25;;
85445;SDS011;75839;50.982;7.040;2024-03-17T13:25:30;2.28;;;1.00;;
85445;SDS011;75839;50.982;7.040;2024-03-17T13:28:00;2.00;;;1.15;;
85445;SDS011;75839;50.982;7.040;2024-03-17T13:30:25;1.58;;;1.40;;
85445;SDS011;75839;50.982;7.040;2024-03-17T13:32:53;1.00;;;0.70;;
85445;SDS011;75839;50.982;7.040;2024-03-17T13:35:25;2.70;;;1.20;;
85445;SDS011;75839;50.982;7.040;2024-03-17T13:37:51;1.88;;;1.00;;
85445;SDS011;75839;50.982;7.040;2024-03-17T13:40:19;1.80;;;0.82;;
85445;SDS011;75839;50.982;7.040;2024-03-17T13:42:45;2.30;;;0.93;;
85445;SDS011;75839;50.982;7.040;2024-03-17T13:45:14;1.17;;;0.82;;
85445;SDS011;75839;50.982;7.040;2024-03-17T13:47:40;2.13;;;0.98;;
85445;SDS011;75839;50.982;7.040;2024-03-17T13:50:06;1.15;;;0.63;;
85445;SDS011;75839;50.982;7.040;2024-03-17T13:52:42;1.95;;;1.30;;
85445;SDS011;75839;50.982;7.040;2024-03-17T13:55:13;1.30;;;0.95;;
85445;SDS011;75839;50.982;7.040;2024-03-17T13:57:43;1.45;;;0.80;;
85445;SDS011;75839;50.982;7.040;2024-03-17T14:00:10;0.93;;;0.82;;
85445;SDS011;75839;50.982;7.040;2024-03-17T14:02:40;0.98;;;0.75;;
85445;SDS011;75839;50.982;7.040;2024-03-17T14:05:07;1.15;;;0.70;;
85445;SDS011;75839;50.982;7.040;2024-03-17T14:07:34;1.73;;;1.00;;
85445;SDS011;75839;50.982;7.040;2024-03-17T14:09:59;4.65;;;0.70;;
85445;SDS011;75839;50.982;7.040;2024-03-17T14:12:24;2.05;;;1.38;;
85445;SDS011;75839;50.982;7.040;2024-03-17T14:14:51;2.00;;;1.30;;
85445;SDS011;75839;50.982;7.040;2024-03-17T14:17:16;1.05;;;0.80;;
85445;SDS011;75839;50.982;7.040;2024-03-17T14:19:42;1.45;;;0.90;;
85445;SDS011;75839;50.982;7.040;2024-03-17T14:22:07;2.47;;;1.13;;
85445;SDS011;75839;50.982;7.040;2024-03-17T14:24:32;1.63;;;0.75;;
85445;SDS011;75839;50.982;7.040;2024-03-17T14:26:59;1.90;;;1.30;;
85445;SDS011;75839;50.982;7.040;2024-03-17T14:29:25;1.95;;;0.93;;
85445;SDS011;75839;50.982;7.040;2024-03-17T14:31:50;1.83;;;0.98;;
85445;SDS011;75839;50.982;7.040;2024-03-17T14:34:15;1.42;;;1.15;;
85445;SDS011;75839;50.982;7.040;2024-03-17T14:36:41;1.13;;;0.90;;
85445;SDS011;75839;50.982;7.040;2024-03-17T14:39:07;0.98;;;0.85;;
85445;SDS011;75839;50.982;7.040;2024-03-17T14:41:33;2.53;;;1.58;;
85445;SDS011;75839;50.982;7.040;2024-03-17T14:43:58;0.75;;;0.75;;
85445;SDS011;75839;50.982;7.040;2024-03-17T14:46:25;1.80;;;1.27;;
85445;SDS011;75839;50.982;7.040;2024-03-17T14:48:50;2.70;;;0.90;;
85445;SDS011;75839;50.982;7.040;2024-03-17T14:51:19;1.33;;;0.93;;
85445;SDS011;75839;50.982;7.040;2024-03-17T14:53:48;2.38;;;1.02;;
85445;SDS011;75839;50.982;7.040;2024-03-17T14:56:17;1.27;;;0.90;;
85445;SDS011;75839;50.982;7.040;2024-03-17T14:58:43;1.05;;;0.75;;
85445;SDS011;75839;50.982;7.040;2024-03-17T15:01:10;1.27;;;0.82;;